sensor_id;sensor_type;location;lat;lon;timestamp;P1;durP1;ratioP1;P2;durP2;ratioP2
71038;SDS011;58692;43.212;27.908;2022-10-13T00:01:42;5.68;;;1.98;;
71038;SDS011;58692;43.212;27.908;2022-10-13T00:04:07;7.23;;;2.77;;
71038;SDS011;58692;43.212;27.908;2022-10-13T00:06:33;5.93;;;2.10;;
71038;SDS011;58692;43.212;27.908;2022-10-13T00:08:58;5.13;;;2.23;;
71038;SDS011;58692;43.212;27.908;2022-10-13T00:11:25;6.22;;;2.05;;
71038;SDS011;58692;43.212;27.908;2022-10-13T00:13:54;6.80;;;2.30;;
71038;SDS011;58692;43.212;27.908;2022-10-13T00:16:22;5.18;;;2.13;;
71038;SDS011;58692;43.212;27.908;2022-10-13T00:18:48;5.33;;;2.20;;
71038;SDS011;58692;43.212;27.908;2022-10-13T00:21:16;9.15;;;2.30;;
71038;SDS011;58692;43.212;27.908;2022-10-13T00:23:43;5.80;;;2.17;;
71038;SDS011;58692;43.212;27.908;2022-10-13T00:26:09;6.68;;;2.00;;
71038;SDS011;58692;43.212;27.908;2022-10-13T00:28:36;6.43;;;1.80;;
71038;SDS011;58692;43.212;27.908;2022-10-13T00:31:03;6.28;;;2.10;;
71038;SDS011;58692;43.212;27.908;2022-10-13T00:33:28;4.55;;;1.90;;
71038;SDS011;58692;43.212;27.908;2022-10-13T00:35:54;5.03;;;1.97;;
71038;SDS011;58692;43.212;27.908;2022-10-13T00:38:20;5.85;;;1.92;;
71038;SDS011;58692;43.212;27.908;2022-10-13T00:40:47;6.03;;;2.00;;
71038;SDS011;58692;43.212;27.908;2022-10-13T00:43:22;6.77;;;2.30;;
71038;SDS011;58692;43.212;27.908;2022-10-13T00:45:50;8.35;;;2.63;;
71038;SDS011;58692;43.212;27.908;2022-10-13T00:48:19;6.85;;;2.22;;
71038;SDS011;58692;43.212;27.908;2022-10-13T00:50:49;6.30;;;1.85;;
71038;SDS011;58692;43.212;27.908;2022-10-13T00:53:15;4.90;;;1.90;;
71038;SDS011;58692;43.212;27.908;2022-10-13T00:55:44;5.17;;;1.97;;
71038;SDS011;58692;43.212;27.908;2022-10-13T00:58:11;5.35;;;2.10;;
71038;SDS011;58692;43.212;27.908;2022-10-13T01:00:42;6.00;;;1.92;;
71038;SDS011;58692;43.212;27.908;2022-10-13T01:03:11;5.65;;;1.95;;
71038;SDS011;58692;43.212;27.908;2022-10-13T01:05:37;6.90;;;2.25;;
71038;SDS011;58692;43.212;27.908;2022-10-13T01:08:04;6.07;;;2.33;;
71038;SDS011;58692;43.212;27.908;2022-10-13T01:13:03;6.78;;;2.42;;
71038;SDS011;58692;43.212;27.908;2022-10-13T01:15:40;5.72;;;2.40;;
71038;SDS011;58692;43.212;27.908;2022-10-13T01:18:10;7.10;;;2.10;;
71038;SDS011;58692;43.212;27.908;2022-10-13T01:23:39;5.72;;;1.90;;
71038;SDS011;58692;43.212;27.908;2022-10-13T01:28:54;7.47;;;2.30;;
71038;SDS011;58692;43.212;27.908;2022-10-13T01:31:40;5.60;;;2.20;;
71038;SDS011;58692;43.212;27.908;2022-10-13T01:36:43;6.35;;;2.08;;
71038;SDS011;58692;43.212;27.908;2022-10-13T01:39:21;6.30;;;2.20;;
71038;SDS011;58692;43.212;27.908;2022-10-13T01:41:53;7.65;;;2.40;;
71038;SDS011;58692;43.212;27.908;2022-10-13T01:44:26;4.97;;;2.10;;
71038;SDS011;58692;43.212;27.908;2022-10-13T01:46:56;8.52;;;2.22;;
71038;SDS011;58692;43.212;27.908;2022-10-13T01:49:26;4.88;;;2.00;;
71038;SDS011;58692;43.212;27.908;2022-10-13T01:51:56;6.03;;;2.40;;
71038;SDS011;58692;43.212;27.908;2022-10-13T01:54:26;8.20;;;2.30;;
71038;SDS011;58692;43.212;27.908;2022-10-13T01:56:52;9.87;;;2.80;;
71038;SDS011;58692;43.212;27.908;2022-10-13T01:59:18;7.35;;;2.20;;
71038;SDS011;58692;43.212;27.908;2022-10-13T02:10:04;5.27;;;2.10;;
71038;SDS011;58692;43.212;27.908;2022-10-13T02:12:53;8.43;;;2.33;;
71038;SDS011;58692;43.212;27.908;2022-10-13T02:15:25;8.50;;;2.92;;
71038;SDS011;58692;43.212;27.908;2022-10-13T02:17:55;9.50;;;3.30;;
71038;SDS011;58692;43.212;27.908;2022-10-13T02:20:21;10.03;;;3.17;;
71038;SDS011;58692;43.212;27.908;2022-10-13T02:22:49;7.93;;;3.50;;
71038;SDS011;58692;43.212;27.908;2022-10-13T02:25:18;9.52;;;3.78;;
71038;SDS011;58692;43.212;27.908;2022-10-13T02:27:44;10.07;;;4.37;;
71038;SDS011;58692;43.212;27.908;2022-10-13T02:30:18;10.32;;;4.40;;
71038;SDS011;58692;43.212;27.908;2022-10-13T02:32:45;10.27;;;4.00;;
71038;SDS011;58692;43.212;27.908;2022-10-13T02:35:11;10.23;;;4.60;;
71038;SDS011;58692;43.212;27.908;2022-10-13T02:37:36;11.97;;;5.33;;
71038;SDS011;58692;43.212;27.908;2022-10-13T02:40:02;11.90;;;4.35;;
71038;SDS011;58692;43.212;27.908;2022-10-13T02:42:28;12.05;;;4.80;;
71038;SDS011;58692;43.212;27.908;2022-10-13T02:44:54;10.87;;;4.27;;
71038;SDS011;58692;43.212;27.908;2022-10-13T02:47:19;10.07;;;4.20;;
71038;SDS011;58692;43.212;27.908;2022-10-13T02:49:45;11.37;;;3.80;;
71038;SDS011;58692;43.212;27.908;2022-10-13T02:52:11;9.30;;;3.50;;
71038;SDS011;58692;43.212;27.908;2022-10-13T02:54:36;11.18;;;3.50;;
71038;SDS011;58692;43.212;27.908;2022-10-13T02:57:01;8.50;;;3.07;;
71038;SDS011;58692;43.212;27.908;2022-10-13T02:59:27;9.73;;;3.00;;
71038;SDS011;58692;43.212;27.908;2022-10-13T03:01:53;7.95;;;3.65;;
71038;SDS011;58692;43.212;27.908;2022-10-13T03:04:18;10.53;;;3.73;;
71038;SDS011;58692;43.212;27.908;2022-10-13T03:06:44;9.07;;;3.13;;
71038;SDS011;58692;43.212;27.908;2022-10-13T03:09:09;7.40;;;3.20;;
71038;SDS011;58692;43.212;27.908;2022-10-13T03:11:35;8.27;;;2.70;;
71038;SDS011;58692;43.212;27.908;2022-10-13T03:14:00;9.68;;;3.50;;
71038;SDS011;58692;43.212;27.908;2022-10-13T03:16:26;5.30;;;2.53;;
71038;SDS011;58692;43.212;27.908;2022-10-13T03:18:51;7.80;;;3.07;;
71038;SDS011;58692;43.212;27.908;2022-10-13T03:21:17;9.98;;;3.33;;
71038;SDS011;58692;43.212;27.908;2022-10-13T03:23:43;9.57;;;3.20;;
71038;SDS011;58692;43.212;27.908;2022-10-13T03:26:08;10.63;;;3.50;;
71038;SDS011;58692;43.212;27.908;2022-10-13T03:28:34;7.30;;;3.43;;
71038;SDS011;58692;43.212;27.908;2022-10-13T03:31:04;11.37;;;3.90;;
71038;SDS011;58692;43.212;27.908;2022-10-13T03:33:31;11.50;;;4.07;;
71038;SDS011;58692;43.212;27.908;2022-10-13T03:36:00;11.38;;;4.60;;
71038;SDS011;58692;43.212;27.908;2022-10-13T03:38:27;12.30;;;3.88;;
71038;SDS011;58692;43.212;27.908;2022-10-13T03:40:54;11.43;;;3.63;;
71038;SDS011;58692;43.212;27.908;2022-10-13T03:43:19;9.00;;;3.53;;
71038;SDS011;58692;43.212;27.908;2022-10-13T03:48:27;11.00;;;4.57;;
71038;SDS011;58692;43.212;27.908;2022-10-13T03:50:54;9.48;;;3.50;;
71038;SDS011;58692;43.212;27.908;2022-10-13T03:53:19;9.98;;;3.60;;
71038;SDS011;58692;43.212;27.908;2022-10-13T03:55:49;11.02;;;4.03;;
71038;SDS011;58692;43.212;27.908;2022-10-13T03:58:15;10.80;;;4.50;;
71038;SDS011;58692;43.212;27.908;2022-10-13T04:00:40;14.57;;;4.15;;
71038;SDS011;58692;43.212;27.908;2022-10-13T04:03:06;13.20;;;4.50;;
71038;SDS011;58692;43.212;27.908;2022-10-13T04:05:33;10.73;;;4.13;;
71038;SDS011;58692;43.212;27.908;2022-10-13T04:08:02;11.87;;;4.97;;
71038;SDS011;58692;43.212;27.908;2022-10-13T04:10:28;9.45;;;4.50;;
71038;SDS011;58692;43.212;27.908;2022-10-13T04:12:53;11.25;;;4.20;;
71038;SDS011;58692;43.212;27.908;2022-10-13T04:15:19;11.67;;;4.93;;
71038;SDS011;58692;43.212;27.908;2022-10-13T04:17:45;12.93;;;5.43;;
71038;SDS011;58692;43.212;27.908;2022-10-13T04:20:10;10.88;;;5.40;;
71038;SDS011;58692;43.212;27.908;2022-10-13T04:22:36;16.63;;;6.72;;
71038;SDS011;58692;43.212;27.908;2022-10-13T04:25:04;12.80;;;6.30;;
71038;SDS011;58692;43.212;27.908;2022-10-13T04:27:48;13.05;;;6.13;;
71038;SDS011;58692;43.212;27.908;2022-10-13T04:31:06;20.17;;;6.77;;
71038;SDS011;58692;43.212;27.908;2022-10-13T04:33:33;9.95;;;5.00;;
71038;SDS011;58692;43.212;27.908;2022-10-13T04:36:04;14.32;;;5.88;;
71038;SDS011;58692;43.212;27.908;2022-10-13T04:38:30;12.17;;;5.63;;
71038;SDS011;58692;43.212;27.908;2022-10-13T04:40:56;12.30;;;5.68;;
71038;SDS011;58692;43.212;27.908;2022-10-13T04:43:21;13.37;;;5.40;;
71038;SDS011;58692;43.212;27.908;2022-10-13T04:45:47;13.02;;;6.70;;
71038;SDS011;58692;43.212;27.908;2022-10-13T04:48:12;16.30;;;6.57;;
71038;SDS011;58692;43.212;27.908;2022-10-13T04:50:38;16.05;;;6.40;;
71038;SDS011;58692;43.212;27.908;2022-10-13T04:53:04;20.03;;;7.40;;
71038;SDS011;58692;43.212;27.908;2022-10-13T04:55:31;15.40;;;7.22;;
71038;SDS011;58692;43.212;27.908;2022-10-13T04:58:00;12.00;;;6.22;;
71038;SDS011;58692;43.212;27.908;2022-10-13T05:00:25;15.23;;;6.87;;
71038;SDS011;58692;43.212;27.908;2022-10-13T05:02:51;14.05;;;6.57;;
71038;SDS011;58692;43.212;27.908;2022-10-13T05:05:16;15.03;;;6.03;;
71038;SDS011;58692;43.212;27.908;2022-10-13T05:07:42;15.33;;;5.83;;
71038;SDS011;58692;43.212;27.908;2022-10-13T05:10:07;10.88;;;5.00;;
71038;SDS011;58692;43.212;27.908;2022-10-13T05:12:42;10.77;;;5.30;;
71038;SDS011;58692;43.212;27.908;2022-10-13T05:15:11;12.07;;;4.57;;
71038;SDS011;58692;43.212;27.908;2022-10-13T05:17:37;10.73;;;4.80;;
71038;SDS011;58692;43.212;27.908;2022-10-13T05:20:09;10.40;;;4.35;;
71038;SDS011;58692;43.212;27.908;2022-10-13T05:22:39;9.32;;;3.97;;
71038;SDS011;58692;43.212;27.908;2022-10-13T05:25:04;10.73;;;4.47;;
71038;SDS011;58692;43.212;27.908;2022-10-13T05:27:50;14.67;;;5.23;;
71038;SDS011;58692;43.212;27.908;2022-10-13T05:30:16;11.77;;;4.43;;
71038;SDS011;58692;43.212;27.908;2022-10-13T05:32:42;9.67;;;4.40;;
71038;SDS011;58692;43.212;27.908;2022-10-13T05:35:07;14.83;;;4.07;;
71038;SDS011;58692;43.212;27.908;2022-10-13T05:37:33;11.18;;;4.28;;
71038;SDS011;58692;43.212;27.908;2022-10-13T05:39:58;8.47;;;3.80;;
71038;SDS011;58692;43.212;27.908;2022-10-13T05:42:24;8.80;;;4.20;;
71038;SDS011;58692;43.212;27.908;2022-10-13T05:44:52;13.75;;;4.30;;
71038;SDS011;58692;43.212;27.908;2022-10-13T05:47:17;11.40;;;3.97;;
71038;SDS011;58692;43.212;27.908;2022-10-13T05:49:43;9.60;;;4.10;;
71038;SDS011;58692;43.212;27.908;2022-10-13T05:52:09;11.30;;;4.90;;
71038;SDS011;58692;43.212;27.908;2022-10-13T05:57:14;8.52;;;4.60;;
71038;SDS011;58692;43.212;27.908;2022-10-13T05:59:42;8.60;;;3.83;;
71038;SDS011;58692;43.212;27.908;2022-10-13T06:02:13;13.23;;;4.10;;
71038;SDS011;58692;43.212;27.908;2022-10-13T06:04:42;11.95;;;5.28;;
71038;SDS011;58692;43.212;27.908;2022-10-13T06:07:10;14.67;;;5.13;;
71038;SDS011;58692;43.212;27.908;2022-10-13T06:09:37;11.13;;;4.70;;
71038;SDS011;58692;43.212;27.908;2022-10-13T06:12:07;10.07;;;4.20;;
71038;SDS011;58692;43.212;27.908;2022-10-13T06:14:34;11.30;;;4.30;;
71038;SDS011;58692;43.212;27.908;2022-10-13T06:17:00;12.73;;;4.60;;
71038;SDS011;58692;43.212;27.908;2022-10-13T06:19:27;11.00;;;4.45;;
71038;SDS011;58692;43.212;27.908;2022-10-13T06:21:53;9.70;;;4.90;;
71038;SDS011;58692;43.212;27.908;2022-10-13T06:24:19;12.83;;;4.40;;
71038;SDS011;58692;43.212;27.908;2022-10-13T06:26:55;11.90;;;5.28;;
71038;SDS011;58692;43.212;27.908;2022-10-13T06:29:20;9.23;;;3.92;;
71038;SDS011;58692;43.212;27.908;2022-10-13T06:31:46;11.07;;;4.30;;
71038;SDS011;58692;43.212;27.908;2022-10-13T06:34:11;10.15;;;4.40;;
71038;SDS011;58692;43.212;27.908;2022-10-13T06:36:37;14.10;;;4.67;;
71038;SDS011;58692;43.212;27.908;2022-10-13T06:39:02;8.20;;;4.27;;
71038;SDS011;58692;43.212;27.908;2022-10-13T06:41:28;10.33;;;4.73;;
71038;SDS011;58692;43.212;27.908;2022-10-13T06:43:54;11.83;;;4.60;;
71038;SDS011;58692;43.212;27.908;2022-10-13T06:46:19;10.43;;;4.00;;
71038;SDS011;58692;43.212;27.908;2022-10-13T06:48:47;17.00;;;5.00;;
71038;SDS011;58692;43.212;27.908;2022-10-13T06:51:15;13.63;;;5.03;;
71038;SDS011;58692;43.212;27.908;2022-10-13T06:53:40;17.67;;;5.27;;
71038;SDS011;58692;43.212;27.908;2022-10-13T06:56:09;16.80;;;5.25;;
71038;SDS011;58692;43.212;27.908;2022-10-13T06:58:35;14.07;;;5.13;;
71038;SDS011;58692;43.212;27.908;2022-10-13T07:01:01;12.68;;;4.90;;
71038;SDS011;58692;43.212;27.908;2022-10-13T07:03:27;12.48;;;4.82;;
71038;SDS011;58692;43.212;27.908;2022-10-13T07:05:53;15.87;;;5.10;;
71038;SDS011;58692;43.212;27.908;2022-10-13T07:08:19;12.13;;;5.18;;
71038;SDS011;58692;43.212;27.908;2022-10-13T07:10:44;14.97;;;5.57;;
71038;SDS011;58692;43.212;27.908;2022-10-13T07:13:10;14.48;;;5.90;;
71038;SDS011;58692;43.212;27.908;2022-10-13T07:15:36;13.93;;;6.10;;
71038;SDS011;58692;43.212;27.908;2022-10-13T07:18:03;11.93;;;5.25;;
71038;SDS011;58692;43.212;27.908;2022-10-13T07:20:29;12.80;;;3.90;;
71038;SDS011;58692;43.212;27.908;2022-10-13T07:22:54;11.73;;;4.15;;
71038;SDS011;58692;43.212;27.908;2022-10-13T07:25:20;8.03;;;3.67;;
71038;SDS011;58692;43.212;27.908;2022-10-13T07:27:45;10.57;;;3.92;;
71038;SDS011;58692;43.212;27.908;2022-10-13T07:30:11;9.90;;;3.20;;
71038;SDS011;58692;43.212;27.908;2022-10-13T07:32:37;5.97;;;2.40;;
71038;SDS011;58692;43.212;27.908;2022-10-13T07:35:06;7.60;;;2.42;;
71038;SDS011;58692;43.212;27.908;2022-10-13T07:37:32;5.73;;;1.70;;
71038;SDS011;58692;43.212;27.908;2022-10-13T07:39:58;2.95;;;1.70;;
71038;SDS011;58692;43.212;27.908;2022-10-13T07:42:26;6.90;;;1.80;;
71038;SDS011;58692;43.212;27.908;2022-10-13T07:44:52;3.33;;;1.50;;
71038;SDS011;58692;43.212;27.908;2022-10-13T07:47:18;3.78;;;1.60;;
71038;SDS011;58692;43.212;27.908;2022-10-13T07:49:43;2.80;;;1.40;;
71038;SDS011;58692;43.212;27.908;2022-10-13T07:52:09;5.10;;;1.80;;
71038;SDS011;58692;43.212;27.908;2022-10-13T07:54:34;3.73;;;1.67;;
71038;SDS011;58692;43.212;27.908;2022-10-13T07:57:06;4.75;;;1.75;;
71038;SDS011;58692;43.212;27.908;2022-10-13T07:59:31;4.97;;;1.40;;
71038;SDS011;58692;43.212;27.908;2022-10-13T08:01:58;5.07;;;1.30;;
71038;SDS011;58692;43.212;27.908;2022-10-13T08:04:28;3.72;;;1.50;;
71038;SDS011;58692;43.212;27.908;2022-10-13T08:06:55;2.47;;;1.10;;
71038;SDS011;58692;43.212;27.908;2022-10-13T08:09:21;4.90;;;1.33;;
71038;SDS011;58692;43.212;27.908;2022-10-13T08:11:47;3.95;;;1.10;;
71038;SDS011;58692;43.212;27.908;2022-10-13T08:14:12;2.53;;;1.17;;
71038;SDS011;58692;43.212;27.908;2022-10-13T08:16:38;2.25;;;1.20;;
71038;SDS011;58692;43.212;27.908;2022-10-13T08:19:05;3.78;;;1.20;;
71038;SDS011;58692;43.212;27.908;2022-10-13T08:21:31;3.57;;;1.00;;
71038;SDS011;58692;43.212;27.908;2022-10-13T08:24:00;1.40;;;1.08;;
71038;SDS011;58692;43.212;27.908;2022-10-13T08:26:26;1.60;;;1.10;;
71038;SDS011;58692;43.212;27.908;2022-10-13T08:28:53;4.10;;;1.10;;
71038;SDS011;58692;43.212;27.908;2022-10-13T08:31:18;3.28;;;1.40;;
71038;SDS011;58692;43.212;27.908;2022-10-13T08:33:44;2.83;;;1.40;;
71038;SDS011;58692;43.212;27.908;2022-10-13T08:36:12;2.70;;;1.20;;
71038;SDS011;58692;43.212;27.908;2022-10-13T08:38:39;1.80;;;1.08;;
71038;SDS011;58692;43.212;27.908;2022-10-13T08:49:28;2.50;;;1.10;;
71038;SDS011;58692;43.212;27.908;2022-10-13T08:51:55;2.38;;;1.20;;
71038;SDS011;58692;43.212;27.908;2022-10-13T08:54:22;3.83;;;1.25;;
71038;SDS011;58692;43.212;27.908;2022-10-13T08:56:50;2.88;;;1.02;;
71038;SDS011;58692;43.212;27.908;2022-10-13T08:59:16;2.92;;;1.20;;
71038;SDS011;58692;43.212;27.908;2022-10-13T09:01:43;4.80;;;1.10;;
71038;SDS011;58692;43.212;27.908;2022-10-13T09:06:40;1.77;;;1.00;;
71038;SDS011;58692;43.212;27.908;2022-10-13T09:09:10;3.35;;;1.17;;
71038;SDS011;58692;43.212;27.908;2022-10-13T09:11:38;2.47;;;1.10;;
71038;SDS011;58692;43.212;27.908;2022-10-13T09:14:07;2.20;;;1.10;;
71038;SDS011;58692;43.212;27.908;2022-10-13T09:16:36;3.80;;;1.10;;
71038;SDS011;58692;43.212;27.908;2022-10-13T09:19:14;3.33;;;1.10;;
71038;SDS011;58692;43.212;27.908;2022-10-13T09:22:34;4.30;;;1.10;;
71038;SDS011;58692;43.212;27.908;2022-10-13T09:27:51;2.77;;;1.10;;
71038;SDS011;58692;43.212;27.908;2022-10-13T09:30:33;1.88;;;1.15;;
71038;SDS011;58692;43.212;27.908;2022-10-13T09:33:13;3.40;;;1.17;;
71038;SDS011;58692;43.212;27.908;2022-10-13T09:35:48;2.47;;;1.20;;
71038;SDS011;58692;43.212;27.908;2022-10-13T09:38:31;2.33;;;1.00;;
71038;SDS011;58692;43.212;27.908;2022-10-13T09:41:02;2.17;;;1.07;;
71038;SDS011;58692;43.212;27.908;2022-10-13T09:43:31;1.90;;;0.93;;
71038;SDS011;58692;43.212;27.908;2022-10-13T09:46:00;2.15;;;1.10;;
71038;SDS011;58692;43.212;27.908;2022-10-13T09:48:28;2.13;;;0.90;;
71038;SDS011;58692;43.212;27.908;2022-10-13T09:50:56;0.93;;;0.77;;
71038;SDS011;58692;43.212;27.908;2022-10-13T09:53:31;2.70;;;1.10;;
71038;SDS011;58692;43.212;27.908;2022-10-13T09:56:14;2.85;;;1.20;;
71038;SDS011;58692;43.212;27.908;2022-10-13T10:01:36;3.28;;;1.00;;
71038;SDS011;58692;43.212;27.908;2022-10-13T10:04:05;3.85;;;1.20;;
71038;SDS011;58692;43.212;27.908;2022-10-13T10:06:35;3.13;;;1.10;;
71038;SDS011;58692;43.212;27.908;2022-10-13T10:09:04;3.15;;;1.13;;
71038;SDS011;58692;43.212;27.908;2022-10-13T10:11:51;2.28;;;1.17;;
71038;SDS011;58692;43.212;27.908;2022-10-13T10:16:53;3.38;;;1.30;;
71038;SDS011;58692;43.212;27.908;2022-10-13T10:19:27;2.50;;;1.20;;
71038;SDS011;58692;43.212;27.908;2022-10-13T10:35:00;4.55;;;1.20;;
71038;SDS011;58692;43.212;27.908;2022-10-13T10:37:56;5.55;;;1.20;;
71038;SDS011;58692;43.212;27.908;2022-10-13T10:43:29;1.77;;;1.10;;
71038;SDS011;58692;43.212;27.908;2022-10-13T10:46:17;3.13;;;1.07;;
71038;SDS011;58692;43.212;27.908;2022-10-13T10:48:49;4.18;;;1.10;;
71038;SDS011;58692;43.212;27.908;2022-10-13T10:51:18;5.32;;;1.30;;
71038;SDS011;58692;43.212;27.908;2022-10-13T10:57:16;2.97;;;1.17;;
71038;SDS011;58692;43.212;27.908;2022-10-13T10:59:57;4.03;;;1.30;;
71038;SDS011;58692;43.212;27.908;2022-10-13T11:08:50;2.85;;;1.08;;
71038;SDS011;58692;43.212;27.908;2022-10-13T11:13:48;1.37;;;0.90;;
71038;SDS011;58692;43.212;27.908;2022-10-13T11:24:51;1.35;;;1.00;;
71038;SDS011;58692;43.212;27.908;2022-10-13T11:27:23;2.13;;;1.00;;
71038;SDS011;58692;43.212;27.908;2022-10-13T11:29:54;2.95;;;1.40;;
71038;SDS011;58692;43.212;27.908;2022-10-13T11:37:43;2.83;;;1.40;;
71038;SDS011;58692;43.212;27.908;2022-10-13T11:40:24;2.63;;;1.00;;
71038;SDS011;58692;43.212;27.908;2022-10-13T11:43:51;2.40;;;0.98;;
71038;SDS011;58692;43.212;27.908;2022-10-13T11:51:46;2.92;;;1.10;;
71038;SDS011;58692;43.212;27.908;2022-10-13T11:59:49;2.85;;;1.10;;
71038;SDS011;58692;43.212;27.908;2022-10-13T12:02:23;2.80;;;0.90;;
71038;SDS011;58692;43.212;27.908;2022-10-13T12:05:00;2.92;;;1.20;;
71038;SDS011;58692;43.212;27.908;2022-10-13T12:07:31;3.88;;;0.90;;
71038;SDS011;58692;43.212;27.908;2022-10-13T12:10:02;2.10;;;1.00;;
71038;SDS011;58692;43.212;27.908;2022-10-13T12:12:31;3.50;;;1.20;;
71038;SDS011;58692;43.212;27.908;2022-10-13T12:14:57;2.30;;;1.10;;
71038;SDS011;58692;43.212;27.908;2022-10-13T12:19:50;3.45;;;1.00;;
71038;SDS011;58692;43.212;27.908;2022-10-13T12:22:18;3.63;;;1.10;;
71038;SDS011;58692;43.212;27.908;2022-10-13T12:24:55;3.95;;;1.00;;
71038;SDS011;58692;43.212;27.908;2022-10-13T12:27:25;1.85;;;1.00;;
71038;SDS011;58692;43.212;27.908;2022-10-13T12:32:57;3.45;;;1.23;;
71038;SDS011;58692;43.212;27.908;2022-10-13T12:35:26;3.22;;;1.00;;
71038;SDS011;58692;43.212;27.908;2022-10-13T12:38:00;2.05;;;0.90;;
71038;SDS011;58692;43.212;27.908;2022-10-13T12:40:27;1.92;;;1.00;;
71038;SDS011;58692;43.212;27.908;2022-10-13T12:42:53;3.83;;;1.17;;
71038;SDS011;58692;43.212;27.908;2022-10-13T12:45:31;3.38;;;1.33;;
71038;SDS011;58692;43.212;27.908;2022-10-13T12:47:58;1.80;;;0.90;;
71038;SDS011;58692;43.212;27.908;2022-10-13T12:53:00;2.08;;;0.80;;
71038;SDS011;58692;43.212;27.908;2022-10-13T12:55:30;1.87;;;0.70;;
71038;SDS011;58692;43.212;27.908;2022-10-13T12:57:56;3.13;;;0.80;;
71038;SDS011;58692;43.212;27.908;2022-10-13T13:00:23;2.17;;;0.90;;
71038;SDS011;58692;43.212;27.908;2022-10-13T13:02:52;4.27;;;0.87;;
71038;SDS011;58692;43.212;27.908;2022-10-13T13:08:03;3.75;;;0.80;;
71038;SDS011;58692;43.212;27.908;2022-10-13T13:10:30;2.75;;;0.70;;
71038;SDS011;58692;43.212;27.908;2022-10-13T13:13:00;1.53;;;0.70;;
71038;SDS011;58692;43.212;27.908;2022-10-13T13:15:37;3.53;;;0.60;;
71038;SDS011;58692;43.212;27.908;2022-10-13T13:20:47;2.10;;;0.80;;
71038;SDS011;58692;43.212;27.908;2022-10-13T13:23:12;3.93;;;0.80;;
71038;SDS011;58692;43.212;27.908;2022-10-13T13:25:38;1.20;;;0.70;;
71038;SDS011;58692;43.212;27.908;2022-10-13T13:28:08;1.83;;;0.63;;
71038;SDS011;58692;43.212;27.908;2022-10-13T13:30:36;1.35;;;0.70;;
71038;SDS011;58692;43.212;27.908;2022-10-13T13:33:02;3.17;;;0.70;;
71038;SDS011;58692;43.212;27.908;2022-10-13T13:35:28;1.23;;;0.60;;
71038;SDS011;58692;43.212;27.908;2022-10-13T13:38:00;2.42;;;0.80;;
71038;SDS011;58692;43.212;27.908;2022-10-13T13:40:26;0.90;;;0.60;;
71038;SDS011;58692;43.212;27.908;2022-10-13T13:42:55;0.57;;;0.50;;
71038;SDS011;58692;43.212;27.908;2022-10-13T13:45:21;1.48;;;0.70;;
71038;SDS011;58692;43.212;27.908;2022-10-13T13:47:53;2.50;;;0.83;;
71038;SDS011;58692;43.212;27.908;2022-10-13T13:50:21;3.55;;;1.00;;
71038;SDS011;58692;43.212;27.908;2022-10-13T13:52:49;4.38;;;1.00;;
71038;SDS011;58692;43.212;27.908;2022-10-13T13:55:14;3.23;;;0.90;;
71038;SDS011;58692;43.212;27.908;2022-10-13T13:57:41;1.93;;;0.80;;
71038;SDS011;58692;43.212;27.908;2022-10-13T14:00:07;1.38;;;0.75;;
71038;SDS011;58692;43.212;27.908;2022-10-13T14:02:33;1.45;;;0.70;;
71038;SDS011;58692;43.212;27.908;2022-10-13T14:04:58;2.07;;;0.80;;
71038;SDS011;58692;43.212;27.908;2022-10-13T14:07:24;2.60;;;0.90;;
71038;SDS011;58692;43.212;27.908;2022-10-13T14:09:50;1.90;;;0.70;;
71038;SDS011;58692;43.212;27.908;2022-10-13T14:12:15;2.43;;;0.90;;
71038;SDS011;58692;43.212;27.908;2022-10-13T14:14:41;1.30;;;0.75;;
71038;SDS011;58692;43.212;27.908;2022-10-13T14:17:06;1.43;;;0.90;;
71038;SDS011;58692;43.212;27.908;2022-10-13T14:19:32;1.13;;;0.77;;
71038;SDS011;58692;43.212;27.908;2022-10-13T14:22:00;1.58;;;0.90;;
71038;SDS011;58692;43.212;27.908;2022-10-13T14:24:28;2.38;;;0.80;;
71038;SDS011;58692;43.212;27.908;2022-10-13T14:26:54;5.27;;;1.30;;
71038;SDS011;58692;43.212;27.908;2022-10-13T14:29:20;5.55;;;1.10;;
71038;SDS011;58692;43.212;27.908;2022-10-13T14:31:48;2.60;;;0.90;;
71038;SDS011;58692;43.212;27.908;2022-10-13T14:34:14;1.50;;;0.80;;
71038;SDS011;58692;43.212;27.908;2022-10-13T14:36:42;2.33;;;0.80;;
71038;SDS011;58692;43.212;27.908;2022-10-13T14:39:24;4.75;;;1.15;;
71038;SDS011;58692;43.212;27.908;2022-10-13T14:41:52;2.93;;;1.00;;
71038;SDS011;58692;43.212;27.908;2022-10-13T14:44:18;2.33;;;1.00;;
71038;SDS011;58692;43.212;27.908;2022-10-13T14:46:43;5.33;;;0.90;;
71038;SDS011;58692;43.212;27.908;2022-10-13T14:49:10;3.45;;;0.90;;
71038;SDS011;58692;43.212;27.908;2022-10-13T14:51:36;1.73;;;0.77;;
71038;SDS011;58692;43.212;27.908;2022-10-13T14:54:01;2.53;;;0.80;;
71038;SDS011;58692;43.212;27.908;2022-10-13T14:56:28;1.75;;;0.80;;
71038;SDS011;58692;43.212;27.908;2022-10-13T14:58:55;3.37;;;0.83;;
71038;SDS011;58692;43.212;27.908;2022-10-13T15:01:22;3.25;;;1.00;;
71038;SDS011;58692;43.212;27.908;2022-10-13T15:03:48;4.13;;;1.08;;
71038;SDS011;58692;43.212;27.908;2022-10-13T15:06:15;3.25;;;1.02;;
71038;SDS011;58692;43.212;27.908;2022-10-13T15:08:42;1.60;;;0.97;;
71038;SDS011;58692;43.212;27.908;2022-10-13T15:11:09;2.63;;;1.10;;
71038;SDS011;58692;43.212;27.908;2022-10-13T15:13:36;2.08;;;1.00;;
71038;SDS011;58692;43.212;27.908;2022-10-13T15:16:04;3.65;;;0.90;;
71038;SDS011;58692;43.212;27.908;2022-10-13T15:18:31;1.55;;;0.80;;
71038;SDS011;58692;43.212;27.908;2022-10-13T15:20:57;2.90;;;1.13;;
71038;SDS011;58692;43.212;27.908;2022-10-13T15:23:23;3.35;;;1.17;;
71038;SDS011;58692;43.212;27.908;2022-10-13T15:25:49;2.47;;;1.10;;
71038;SDS011;58692;43.212;27.908;2022-10-13T15:28:16;6.53;;;0.90;;
71038;SDS011;58692;43.212;27.908;2022-10-13T15:30:41;4.50;;;1.10;;
71038;SDS011;58692;43.212;27.908;2022-10-13T15:33:07;6.38;;;1.50;;
71038;SDS011;58692;43.212;27.908;2022-10-13T15:35:33;3.60;;;1.00;;
71038;SDS011;58692;43.212;27.908;2022-10-13T15:37:59;3.30;;;1.10;;
71038;SDS011;58692;43.212;27.908;2022-10-13T15:40:25;3.78;;;1.10;;
71038;SDS011;58692;43.212;27.908;2022-10-13T15:42:51;5.47;;;1.60;;
71038;SDS011;58692;43.212;27.908;2022-10-13T15:45:17;2.67;;;1.20;;
71038;SDS011;58692;43.212;27.908;2022-10-13T15:47:43;4.23;;;1.50;;
71038;SDS011;58692;43.212;27.908;2022-10-13T15:50:08;5.30;;;1.30;;
71038;SDS011;58692;43.212;27.908;2022-10-13T15:52:36;5.47;;;1.57;;
71038;SDS011;58692;43.212;27.908;2022-10-13T15:55:05;8.13;;;1.38;;
71038;SDS011;58692;43.212;27.908;2022-10-13T15:57:32;6.53;;;1.40;;
71038;SDS011;58692;43.212;27.908;2022-10-13T15:59:58;6.70;;;1.50;;
71038;SDS011;58692;43.212;27.908;2022-10-13T16:02:24;5.30;;;1.53;;
71038;SDS011;58692;43.212;27.908;2022-10-13T16:04:49;4.78;;;1.50;;
71038;SDS011;58692;43.212;27.908;2022-10-13T16:07:15;4.27;;;1.40;;
71038;SDS011;58692;43.212;27.908;2022-10-13T16:09:42;6.93;;;1.67;;
71038;SDS011;58692;43.212;27.908;2022-10-13T16:12:09;6.88;;;1.50;;
71038;SDS011;58692;43.212;27.908;2022-10-13T16:14:35;4.75;;;1.35;;
71038;SDS011;58692;43.212;27.908;2022-10-13T16:17:00;4.93;;;1.50;;
71038;SDS011;58692;43.212;27.908;2022-10-13T16:19:26;6.93;;;1.70;;
71038;SDS011;58692;43.212;27.908;2022-10-13T16:21:51;5.72;;;1.80;;
71038;SDS011;58692;43.212;27.908;2022-10-13T16:24:17;5.30;;;1.80;;
71038;SDS011;58692;43.212;27.908;2022-10-13T16:26:43;7.00;;;2.00;;
71038;SDS011;58692;43.212;27.908;2022-10-13T16:29:08;6.33;;;1.90;;